Time;durP1;ratioP1;P1;durP2;ratioP2;P2;SDS_P1;SDS_P2;PMS_P1;PMS_P2;Temp;Humidity;BMP_temperature;BMP_pressure;BME280_temperature;BME280_humidity;BME280_pressure;Samples;Min_cycle;Max_cycle;Signal;HPM_P1;HPM_P2
2022/12/08 00:00:47;;;;;;;;;;;;;;;;;;2088638;28;19952;-91
2022/12/08 00:01:50;;;;;;;;;;;;;;;;;;1860317;28;10000127;-91
2022/12/08 00:02:51;;;;;;;;;;;;;;;;;;2081257;28;20399;-91
2022/12/08 00:03:51;;;;;;;;;;;;;;;;;;2089390;28;19913;-90
2022/12/08 00:09:21;;;;;;;;;;;;;;;;;;2097816;28;19913;-90
2022/12/08 00:10:21;;;;;;;;;;;;;;;;;;2088441;28;20474;-89
2022/12/08 00:11:21;;;;;;;;;;;;;;;;;;2088437;28;20107;-90
2022/12/08 00:12:21;;;;;;;;;;;;;;;;;;2088798;28;19916;-90
2022/12/08 00:13:22;;;;;;;;;;;;;;;;;;2088231;28;19912;-90
2022/12/08 00:14:23;;;;;;;;;;;;;;;;;;2088750;28;20017;-90
2022/12/08 00:15:24;;;;;;;;;;;;;;;;;;2088309;28;19985;-90
2022/12/08 00:16:24;;;;;;;;;;;;;;;;;;2088210;28;19920;-90
2022/12/08 00:17:24;;;;;;;;;;;;;;;;;;2088561;28;19913;-89
2022/12/08 00:18:25;;;;;;;;;;;;;;;;;;2080424;28;19917;-90
2022/12/08 00:19:25;;;;;;;;;;;;;;;;;;2088334;28;20026;-90
2022/12/08 00:20:26;;;;;;;;;;;;;;;;;;2088300;28;20421;-90
2022/12/08 00:21:27;;;;;;;;;;;;;;;;;;2097056;28;19919;-90
2022/12/08 00:22:28;;;;;;;;;;;;;;;;;;2088275;28;19912;-90
2022/12/08 00:23:28;;;;;;;;;;;;;;;;;;2088346;28;19916;-90
2022/12/08 00:24:30;;;;;;;;;;;;;;;;;;2088293;28;19913;-89
2022/12/08 00:25:30;;;;;;;;;;;;;;;;;;2080076;28;19913;-90
2022/12/08 00:26:31;;;;;;;;;;;;;;;;;;2080037;28;20348;-89
2022/12/08 00:27:31;;;;;;;;;;;;;;;;;;2088203;28;20402;-88
2022/12/08 00:28:32;;;;;;;;;;;;;;;;;;2088455;28;19935;-90
2022/12/08 00:29:32;;;;;;;;;;;;;;;;;;2088725;28;20283;-90
2022/12/08 00:30:32;;;;;;;;;;;;;;;;;;2088522;28;20016;-90
2022/12/08 00:31:33;;;;;;;;;;;;;;;;;;2088058;28;19916;-90
2022/12/08 00:32:33;;;;;;;;;;;;;;;;;;2088504;28;19964;-90
2022/12/08 00:33:35;;;;;;;;;;;;;;;;;;2088364;28;19943;-90
2022/12/08 00:34:35;;;;;;;;;;;;;;;;;;2088674;28;20035;-90
2022/12/08 00:35:35;;;;;;;;;;;;;;;;;;2088437;28;19967;-91
2022/12/08 00:36:35;;;;;;;;;;;;;;;;;;2088277;28;19912;-90
2022/12/08 00:37:36;;;;;;;;;;;;;;;;;;2088365;28;19974;-90
2022/12/08 00:38:36;;;;;;;;;;;;;;;;;;2088668;28;20329;-91
2022/12/08 00:39:37;;;;;;;;;;;;;;;;;;2088669;28;19966;-90
2022/12/08 00:40:37;;;;;;;;;;;;;;;;;;2080333;28;19996;-90
2022/12/08 00:42:56;;;;;;;;;;;;;;;;;;2097893;28;20345;-90
2022/12/08 00:43:56;;;;;;;;;;;;;;;;;;2088579;28;20031;-90
2022/12/08 00:44:56;;;;;;;;;;;;;;;;;;2088603;28;19913;-89
2022/12/08 00:45:57;;;;;;;;;;;;;;;;;;2088570;28;19913;-90
2022/12/08 00:46:57;;;;;;;;;;;;;;;;;;2088885;28;20395;-90
2022/12/08 00:47:57;;;;;;;;;;;;;;;;;;2088448;28;20319;-89
2022/12/08 00:48:58;;;;;;;;;;;;;;;;;;2088373;28;19932;-89
2022/12/08 00:49:58;;;;;;;;;;;;;;;;;;2088125;28;19975;-90
2022/12/08 00:50:58;;;;;;;;;;;;;;;;;;2088606;28;19919;-88
2022/12/08 00:51:59;;;;;;;;;;;;;;;;;;2089659;28;19917;-89
2022/12/08 00:53:00;;;;;;;;;;;;;;;;;;2082557;28;20427;-89
2022/12/08 00:54:00;;;;;;;;;;;;;;;;;;2093251;28;19977;-90
2022/12/08 00:55:00;;;;;;;;;;;;;;;;;;2093140;28;20022;-90
2022/12/08 00:56:01;;;;;;;;;;;;;;;;;;2098247;28;19921;-89
2022/12/08 00:57:01;;;;;;;;;;;;;;;;;;2098475;28;19960;-87
2022/12/08 00:58:01;;;;;;;;;;;;;;;;;;2107386;28;19901;-87
2022/12/08 00:59:02;;;;;;;;;;;;;;;;;;2107028;28;19900;-89
2022/12/08 01:00:03;;;;;;;;;;;;;;;;;;2103963;28;19990;-89
2022/12/08 01:01:08;;;;;;;;;;;;;;;;;;2097888;28;19966;-89
2022/12/08 01:02:09;;;;;;;;;;;;;;;;;;2088909;28;20386;-89
2022/12/08 01:03:09;;;;;;;;;;;;;;;;;;2080486;28;19981;-89
2022/12/08 01:04:11;;;;;;;;;;;;;;;;;;2088689;28;19912;-90
2022/12/08 01:05:12;;;;;;;;;;;;;;;;;;2088596;28;20059;-89
2022/12/08 01:06:12;;;;;;;;;;;;;;;;;;2088405;28;19913;-90
2022/12/08 01:07:13;;;;;;;;;;;;;;;;;;2089704;28;20500;-89
2022/12/08 01:08:14;;;;;;;;;;;;;;;;;;2092852;28;19928;-91
2022/12/08 01:09:15;;;;;;;;;;;;;;;;;;2083481;28;19948;-92
2022/12/08 01:10:15;;;;;;;;;;;;;;;;;;2084465;28;20456;-92
2022/12/08 01:11:17;;;;;;;;;;;;;;;;;;2075698;28;20026;-93
2022/12/08 01:12:17;;;;;;;;;;;;;;;;;;2083291;28;19921;-93
2022/12/08 01:13:17;;;;;;;;;;;;;;;;;;2083345;28;19913;-94
2022/12/08 01:14:18;;;;;;;;;;;;;;;;;;2082972;28;20079;-93
2022/12/08 01:15:18;;;;;;;;;;;;;;;;;;2091724;28;19945;-93
2022/12/08 01:16:19;;;;;;;;;;;;;;;;;;2099214;28;20334;-94
2022/12/08 01:17:20;;;;;;;;;;;;;;;;;;2090814;28;19913;-93
2022/12/08 01:18:23;;;;;;;;;;;;;;;;;;2080752;28;19971;-93
2022/12/08 01:19:23;;;;;;;;;;;;;;;;;;2080773;28;19917;-93
2022/12/08 01:20:24;;;;;;;;;;;;;;;;;;2080581;28;19913;-93
2022/12/08 01:21:24;;;;;;;;;;;;;;;;;;2080274;28;19956;-93
2022/12/08 01:22:25;;;;;;;;;;;;;;;;;;2080490;28;19920;-93
2022/12/08 01:23:27;;;;;;;;;;;;;;;;;;2080341;28;20078;-92
2022/12/08 01:24:27;;;;;;;;;;;;;;;;;;2088928;28;19912;-93
2022/12/08 01:25:27;;;;;;;;;;;;;;;;;;2088755;28;19971;-93
2022/12/08 01:27:37;;;;;;;;;;;;;;;;;;1223645;26;20026;-90
2022/12/08 01:28:38;;;;;;;;;;;;;;;;;;2081507;28;19971;-91
2022/12/08 01:29:41;;;;;;;;;;;;;;;;;;2081949;28;20003;-92
2022/12/08 01:30:41;;;;;;;;;;;;;;;;;;2081623;28;19920;-92
2022/12/08 01:31:42;;;;;;;;;;;;;;;;;;2073343;28;20012;-89
2022/12/08 01:32:42;;;;;;;;;;;;;;;;;;2081680;28;19913;-91
2022/12/08 01:33:43;;;;;;;;;;;;;;;;;;2081551;28;19913;-92
2022/12/08 01:34:43;;;;;;;;;;;;;;;;;;2081559;28;20656;-93
2022/12/08 01:35:43;;;;;;;;;;;;;;;;;;2081611;28;19917;-92
2022/12/08 01:36:44;;;;;;;;;;;;;;;;;;2073560;28;19936;-92
2022/12/08 01:37:44;;;;;;;;;;;;;;;;;;2089857;28;19916;-91
2022/12/08 01:38:44;;;;;;;;;;;;;;;;;;2089903;28;20017;-91
2022/12/08 01:39:45;;;;;;;;;;;;;;;;;;2081766;28;19936;-91
2022/12/08 01:40:45;;;;;;;;;;;;;;;;;;2081451;28;19960;-91
2022/12/08 01:41:46;;;;;;;;;;;;;;;;;;2090008;28;19920;-92
2022/12/08 01:42:46;;;;;;;;;;;;;;;;;;2091017;28;19931;-92
2022/12/08 01:44:01;;;;;;;;;;;;;;;;;;2091994;28;19984;-92
2022/12/08 01:45:03;;;;;;;;;;;;;;;;;;2092000;28;19975;-92
2022/12/08 01:46:04;;;;;;;;;;;;;;;;;;2075573;28;20008;-92
2022/12/08 01:47:04;;;;;;;;;;;;;;;;;;2074744;28;20020;-90
2022/12/08 01:48:07;;;;;;;;;;;;;;;;;;2081709;28;19913;-92
2022/12/08 01:49:11;;;;;;;;;;;;;;;;;;2081547;28;19917;-91
2022/12/08 01:50:12;;;;;;;;;;;;;;;;;;2081538;28;19956;-91
2022/12/08 01:51:13;;;;;;;;;;;;;;;;;;2082173;28;20026;-90
2022/12/08 01:52:16;;;;;;;;;;;;;;;;;;2081372;28;20399;-90
2022/12/08 01:53:20;;;;;;;;;;;;;;;;;;2090320;28;20376;-91
2022/12/08 01:54:23;;;;;;;;;;;;;;;;;;2090452;28;19939;-91
2022/12/08 01:55:35;;;;;;;;;;;;;;;;;;2089739;28;19952;-91
2022/12/08 01:56:41;;;;;;;;;;;;;;;;;;2089792;28;20407;-91
2022/12/08 01:57:46;;;;;;;;;;;;;;;;;;2090450;28;19920;-91
2022/12/08 01:58:48;;;;;;;;;;;;;;;;;;2081437;28;19924;-91
2022/12/08 01:59:52;;;;;;;;;;;;;;;;;;2081608;28;20296;-90
2022/12/08 02:00:52;;;;;;;;;;;;;;;;;;2081632;28;19961;-91
2022/12/08 02:01:52;;;;;;;;;;;;;;;;;;2081564;28;19916;-91
2022/12/08 02:02:56;;;;;;;;;;;;;;;;;;2094018;28;19913;-91
2022/12/08 02:04:00;;;;;;;;;;;;;;;;;;2084139;28;19920;-91
2022/12/08 02:05:00;;;;;;;;;;;;;;;;;;2090367;28;19923;-91
2022/12/08 02:06:01;;;;;;;;;;;;;;;;;;2088283;28;19920;-91
2022/12/08 02:07:03;;;;;;;;;;;;;;;;;;2083640;28;20005;-91
2022/12/08 02:08:06;;;;;;;;;;;;;;;;;;2090348;28;19913;-91
2022/12/08 02:09:09;;;;;;;;;;;;;;;;;;2089990;28;19936;-91
2022/12/08 02:10:11;;;;;;;;;;;;;;;;;;2082579;28;20343;-92
2022/12/08 02:11:11;;;;;;;;;;;;;;;;;;2073623;28;19913;-91
2022/12/08 02:12:12;;;;;;;;;;;;;;;;;;2081826;28;19993;-91
2022/12/08 02:13:14;;;;;;;;;;;;;;;;;;2090198;28;19912;-91
2022/12/08 02:14:14;;;;;;;;;;;;;;;;;;2090697;28;20008;-93
2022/12/08 02:15:14;;;;;;;;;;;;;;;;;;2081775;28;19913;-93
2022/12/08 02:16:27;;;;;;;;;;;;;;;;;;2081858;28;19913;-93
2022/12/08 02:17:34;;;;;;;;;;;;;;;;;;2090186;28;20003;-91
2022/12/08 02:18:35;;;;;;;;;;;;;;;;;;2089310;28;20345;-91
2022/12/08 02:19:35;;;;;;;;;;;;;;;;;;2090100;28;19959;-93
2022/12/08 02:20:35;;;;;;;;;;;;;;;;;;2082014;28;19920;-94
2022/12/08 02:21:35;;;;;;;;;;;;;;;;;;2081875;28;20325;-93
2022/12/08 02:22:46;;;;;;;;;;;;;;;;;;2081665;28;19964;-93
2022/12/08 02:24:00;;;;;;;;;;;;;;;;;;2081107;28;19984;-93
2022/12/08 02:25:10;;;;;;;;;;;;;;;;;;2090270;28;20406;-92
2022/12/08 02:26:11;;;;;;;;;;;;;;;;;;2090932;28;19948;-92
2022/12/08 02:27:43;;;;;;;;;;;;;;;;;;2089881;28;19913;-91
2022/12/08 02:29:01;;;;;;;;;;;;;;;;;;2065529;28;20389;-93
2022/12/08 02:30:04;;;;;;;;;;;;;;;;;;2089332;28;19913;-93
2022/12/08 02:31:05;;;;;;;;;;;;;;;;;;2082144;28;20065;-93
2022/12/08 02:32:05;;;;;;;;;;;;;;;;;;2082064;28;19970;-93
2022/12/08 02:33:24;;;;;;;;;;;;;;;;;;2090475;28;19999;-93
2022/12/08 02:34:36;;;;;;;;;;;;;;;;;;2075951;28;19925;-90
2022/12/08 02:35:58;;;;;;;;;;;;;;;;;;2083002;28;19948;-90
2022/12/08 02:37:13;;;;;;;;;;;;;;;;;;2089917;28;19912;-91
2022/12/08 02:38:17;;;;;;;;;;;;;;;;;;2090358;28;19976;-91
2022/12/08 02:39:32;;;;;;;;;;;;;;;;;;2089828;28;19924;-91
2022/12/08 02:40:47;;;;;;;;;;;;;;;;;;2089064;28;20357;-91
2022/12/08 02:41:58;;;;;;;;;;;;;;;;;;2089561;28;20178;-91
2022/12/08 02:43:07;;;;;;;;;;;;;;;;;;2089836;28;20007;-91
2022/12/08 02:44:07;;;;;;;;;;;;;;;;;;2081016;28;19913;-91
2022/12/08 02:45:18;;;;;;;;;;;;;;;;;;2081243;28;20412;-91
2022/12/08 02:46:21;;;;;;;;;;;;;;;;;;2081214;28;19921;-91
2022/12/08 02:47:24;;;;;;;;;;;;;;;;;;2081712;28;19988;-91
2022/12/08 02:48:26;;;;;;;;;;;;;;;;;;2081608;28;19946;-91
2022/12/08 02:49:28;;;;;;;;;;;;;;;;;;2073475;28;20009;-89
2022/12/08 02:50:28;;;;;;;;;;;;;;;;;;2081492;28;19913;-90
2022/12/08 02:51:29;;;;;;;;;;;;;;;;;;2081310;28;19984;-92
2022/12/08 02:52:29;;;;;;;;;;;;;;;;;;2072912;28;20359;-91
2022/12/08 02:53:31;;;;;;;;;;;;;;;;;;2081149;28;19913;-91
2022/12/08 02:54:31;;;;;;;;;;;;;;;;;;2081407;28;20020;-91
2022/12/08 02:55:44;;;;;;;;;;;;;;;;;;2081452;28;19916;-91
2022/12/08 02:57:02;;;;;;;;;;;;;;;;;;2089447;28;19917;-91
2022/12/08 02:58:05;;;;;;;;;;;;;;;;;;2081182;28;19920;-91
2022/12/08 02:59:14;;;;;;;;;;;;;;;;;;2081508;28;20060;-89
2022/12/08 03:00:16;;;;;;;;;;;;;;;;;;2089643;28;19936;-92
2022/12/08 03:01:28;;;;;;;;;;;;;;;;;;2089571;28;19936;-91
2022/12/08 03:02:55;;;;;;;;;;;;;;;;;;2089665;28;20292;-91
2022/12/08 03:03:58;;;;;;;;;;;;;;;;;;2081102;28;19913;-90
2022/12/08 03:05:10;;;;;;;;;;;;;;;;;;2081518;28;19913;-91
2022/12/08 03:06:17;;;;;;;;;;;;;;;;;;2089533;28;19925;-91
2022/12/08 03:07:34;;;;;;;;;;;;;;;;;;2091019;28;20023;-92
2022/12/08 03:08:40;;;;;;;;;;;;;;;;;;2089531;28;19953;-92
2022/12/08 03:09:46;;;;;;;;;;;;;;;;;;2089495;28;19913;-91
2022/12/08 03:11:09;;;;;;;;;;;;;;;;;;2088771;28;19920;-90
2022/12/08 03:12:16;;;;;;;;;;;;;;;;;;2089417;28;19917;-91
2022/12/08 03:13:23;;;;;;;;;;;;;;;;;;2090334;28;19959;-91
2022/12/08 03:14:24;;;;;;;;;;;;;;;;;;2081159;28;20000;-91
2022/12/08 03:15:24;;;;;;;;;;;;;;;;;;2081354;28;19940;-91
2022/12/08 03:16:28;;;;;;;;;;;;;;;;;;2089151;28;20573;-91
2022/12/08 03:17:30;;;;;;;;;;;;;;;;;;2088939;28;19920;-91
2022/12/08 03:18:35;;;;;;;;;;;;;;;;;;2081492;28;19995;-91
2022/12/08 03:19:37;;;;;;;;;;;;;;;;;;2081137;28;19985;-91
2022/12/08 03:20:39;;;;;;;;;;;;;;;;;;2073035;28;19917;-91
2022/12/08 03:21:41;;;;;;;;;;;;;;;;;;2081287;28;19913;-91
2022/12/08 03:22:42;;;;;;;;;;;;;;;;;;2089797;28;20361;-91
2022/12/08 03:23:43;;;;;;;;;;;;;;;;;;2081162;28;20426;-92
2022/12/08 03:24:44;;;;;;;;;;;;;;;;;;2081254;28;19917;-91
2022/12/08 03:25:49;;;;;;;;;;;;;;;;;;2081076;28;19924;-92
2022/12/08 03:26:53;;;;;;;;;;;;;;;;;;2081497;28;20339;-91
2022/12/08 03:27:53;;;;;;;;;;;;;;;;;;2080957;28;19967;-91
2022/12/08 03:28:53;;;;;;;;;;;;;;;;;;2081214;28;19983;-91
2022/12/08 03:29:56;;;;;;;;;;;;;;;;;;2089166;28;20055;-92
2022/12/08 03:30:58;;;;;;;;;;;;;;;;;;2089179;28;19920;-91
2022/12/08 03:32:30;;;;;;;;;;;;;;;;;;2072960;28;20055;-91
2022/12/08 03:33:32;;;;;;;;;;;;;;;;;;2056122;28;19914;-91
2022/12/08 03:34:33;;;;;;;;;;;;;;;;;;2073530;28;19973;-91
2022/12/08 03:35:35;;;;;;;;;;;;;;;;;;2089253;28;20472;-91
2022/12/08 03:36:36;;;;;;;;;;;;;;;;;;2089210;28;19913;-91
2022/12/08 03:37:37;;;;;;;;;;;;;;;;;;2089198;28;19984;-90
2022/12/08 03:38:38;;;;;;;;;;;;;;;;;;2089686;28;19913;-90
2022/12/08 03:39:39;;;;;;;;;;;;;;;;;;2080850;28;20007;-91
2022/12/08 03:40:39;;;;;;;;;;;;;;;;;;2080793;28;20322;-91
2022/12/08 03:41:40;;;;;;;;;;;;;;;;;;2088849;28;20355;-91
2022/12/08 03:42:40;;;;;;;;;;;;;;;;;;2080613;28;19970;-91
2022/12/08 03:43:40;;;;;;;;;;;;;;;;;;2080717;28;19913;-90
2022/12/08 03:44:41;;;;;;;;;;;;;;;;;;2080656;28;19921;-91
2022/12/08 03:45:41;;;;;;;;;;;;;;;;;;2088619;28;20011;-91
2022/12/08 03:46:41;;;;;;;;;;;;;;;;;;2080934;28;19979;-91
2022/12/08 03:47:42;;;;;;;;;;;;;;;;;;2089626;28;20413;-91
2022/12/08 03:48:42;;;;;;;;;;;;;;;;;;2088926;28;19913;-90
2022/12/08 03:49:43;;;;;;;;;;;;;;;;;;2088900;28;19920;-91
2022/12/08 03:50:43;;;;;;;;;;;;;;;;;;2088802;28;19954;-91
2022/12/08 03:51:43;;;;;;;;;;;;;;;;;;2072222;28;19960;-91
2022/12/08 03:52:43;;;;;;;;;;;;;;;;;;2080677;28;19920;-90
2022/12/08 03:53:44;;;;;;;;;;;;;;;;;;2089381;28;19927;-90
2022/12/08 03:54:45;;;;;;;;;;;;;;;;;;2089367;28;20019;-91
2022/12/08 03:55:45;;;;;;;;;;;;;;;;;;2088768;28;19919;-91
2022/12/08 03:56:45;;;;;;;;;;;;;;;;;;2088932;28;19944;-90
2022/12/08 03:57:46;;;;;;;;;;;;;;;;;;2080640;28;19935;-91
2022/12/08 03:58:46;;;;;;;;;;;;;;;;;;2080742;28;19924;-90
2022/12/08 03:59:46;;;;;;;;;;;;;;;;;;2088615;28;19928;-91
2022/12/08 04:00:47;;;;;;;;;;;;;;;;;;2080303;28;19994;-90
2022/12/08 04:01:47;;;;;;;;;;;;;;;;;;2080493;28;20342;-90
2022/12/08 04:02:47;;;;;;;;;;;;;;;;;;2072548;28;20470;-90
2022/12/08 04:03:48;;;;;;;;;;;;;;;;;;2072174;28;19913;-91
2022/12/08 04:04:48;;;;;;;;;;;;;;;;;;2080160;28;19921;-90
2022/12/08 04:05:48;;;;;;;;;;;;;;;;;;2080179;28;20388;-90
2022/12/08 04:06:49;;;;;;;;;;;;;;;;;;2072072;28;19913;-91
2022/12/08 04:07:49;;;;;;;;;;;;;;;;;;2072131;28;19913;-91
2022/12/08 04:08:50;;;;;;;;;;;;;;;;;;2080396;28;20435;-90
2022/12/08 04:09:50;;;;;;;;;;;;;;;;;;2080226;28;20063;-90
2022/12/08 04:10:50;;;;;;;;;;;;;;;;;;2072206;28;20012;-90
2022/12/08 04:11:51;;;;;;;;;;;;;;;;;;2071802;28;19928;-89
2022/12/08 04:12:52;;;;;;;;;;;;;;;;;;2080394;28;19920;-90
2022/12/08 04:13:52;;;;;;;;;;;;;;;;;;2089300;28;19978;-91
2022/12/08 04:14:52;;;;;;;;;;;;;;;;;;2072969;28;20000;-91
2022/12/08 04:15:52;;;;;;;;;;;;;;;;;;2073451;28;19956;-89
2022/12/08 04:16:53;;;;;;;;;;;;;;;;;;2089496;28;20442;-90
2022/12/08 04:17:53;;;;;;;;;;;;;;;;;;2096970;28;20011;-90
2022/12/08 04:18:53;;;;;;;;;;;;;;;;;;2098155;28;19919;-89
2022/12/08 04:19:54;;;;;;;;;;;;;;;;;;2098286;28;19913;-89
2022/12/08 04:20:54;;;;;;;;;;;;;;;;;;2097568;28;20000;-88
2022/12/08 04:21:54;;;;;;;;;;;;;;;;;;2079050;28;20021;-90
2022/12/08 04:22:55;;;;;;;;;;;;;;;;;;2073848;28;19925;-91
2022/12/08 04:23:55;;;;;;;;;;;;;;;;;;2072995;28;19929;-91
2022/12/08 04:24:55;;;;;;;;;;;;;;;;;;2073340;28;20004;-92
2022/12/08 04:25:55;;;;;;;;;;;;;;;;;;2082904;28;19920;-91
2022/12/08 04:26:56;;;;;;;;;;;;;;;;;;2099264;28;19909;-91
2022/12/08 04:27:56;;;;;;;;;;;;;;;;;;2099002;28;19935;-91
2022/12/08 04:28:56;;;;;;;;;;;;;;;;;;2099075;28;19921;-90
2022/12/08 04:29:57;;;;;;;;;;;;;;;;;;2092748;28;19912;-91
2022/12/08 04:30:57;;;;;;;;;;;;;;;;;;2082516;28;19916;-91
2022/12/08 04:31:57;;;;;;;;;;;;;;;;;;2073121;28;19913;-92
2022/12/08 04:32:58;;;;;;;;;;;;;;;;;;2080860;28;20412;-92
2022/12/08 04:33:58;;;;;;;;;;;;;;;;;;2089458;28;19913;-91
2022/12/08 04:34:58;;;;;;;;;;;;;;;;;;2088758;28;20362;-92
2022/12/08 04:35:58;;;;;;;;;;;;;;;;;;2088861;28;19992;-92
2022/12/08 04:36:59;;;;;;;;;;;;;;;;;;2088632;28;20398;-91
2022/12/08 04:37:59;;;;;;;;;;;;;;;;;;2081059;28;19920;-93
2022/12/08 04:38:59;;;;;;;;;;;;;;;;;;2080386;28;20400;-91
2022/12/08 04:40:00;;;;;;;;;;;;;;;;;;2080447;28;19913;-91
2022/12/08 04:41:00;;;;;;;;;;;;;;;;;;2088365;28;19913;-92
2022/12/08 04:42:01;;;;;;;;;;;;;;;;;;2080400;28;19913;-91
2022/12/08 04:43:01;;;;;;;;;;;;;;;;;;2080321;28;20325;-92
2022/12/08 04:44:01;;;;;;;;;;;;;;;;;;2088460;28;20051;-91
2022/12/08 04:45:02;;;;;;;;;;;;;;;;;;1721978;28;10325278;-91
2022/12/08 04:46:05;;;;;;;;;;;;;;;;;;2072537;28;19961;-91
2022/12/08 04:47:05;;;;;;;;;;;;;;;;;;2087492;28;19909;-91
2022/12/08 04:48:05;;;;;;;;;;;;;;;;;;2097748;28;19925;-90
2022/12/08 04:49:05;;;;;;;;;;;;;;;;;;2098904;28;19935;-91
2022/12/08 04:50:07;;;;;;;;;;;;;;;;;;2099113;28;19916;-91
2022/12/08 04:51:13;;;;;;;;;;;;;;;;;;2098928;28;19908;-91
2022/12/08 04:52:14;;;;;;;;;;;;;;;;;;2097248;28;19917;-90
2022/12/08 04:53:14;;;;;;;;;;;;;;;;;;2080723;28;20069;-91
2022/12/08 04:54:14;;;;;;;;;;;;;;;;;;2080759;28;19913;-90
2022/12/08 04:55:14;;;;;;;;;;;;;;;;;;2088886;28;20030;-90
2022/12/08 04:56:16;;;;;;;;;;;;;;;;;;2080578;28;19913;-90
2022/12/08 04:57:16;;;;;;;;;;;;;;;;;;2089206;28;19987;-90
2022/12/08 04:58:17;;;;;;;;;;;;;;;;;;2080208;28;19963;-90
2022/12/08 04:59:18;;;;;;;;;;;;;;;;;;2080085;28;20398;-91
2022/12/08 05:00:18;;;;;;;;;;;;;;;;;;2079934;28;20309;-90
2022/12/08 05:01:18;;;;;;;;;;;;;;;;;;2071984;28;19914;-90
2022/12/08 05:02:19;;;;;;;;;;;;;;;;;;2080080;28;19917;-89
2022/12/08 05:03:19;;;;;;;;;;;;;;;;;;2088269;28;20325;-90
2022/12/08 05:04:19;;;;;;;;;;;;;;;;;;2089002;28;20136;-90
2022/12/08 05:05:19;;;;;;;;;;;;;;;;;;2089084;28;19920;-91
2022/12/08 05:06:20;;;;;;;;;;;;;;;;;;2088904;28;19951;-90
2022/12/08 05:07:20;;;;;;;;;;;;;;;;;;2088188;28;19967;-90
2022/12/08 05:08:20;;;;;;;;;;;;;;;;;;2088293;28;19924;-90
2022/12/08 05:09:21;;;;;;;;;;;;;;;;;;2088897;28;20383;-90
2022/12/08 05:10:21;;;;;;;;;;;;;;;;;;2088966;28;20284;-90
2022/12/08 05:11:21;;;;;;;;;;;;;;;;;;2080018;28;20004;-90
2022/12/08 05:12:22;;;;;;;;;;;;;;;;;;2079993;28;19921;-90
2022/12/08 05:13:22;;;;;;;;;;;;;;;;;;2089077;28;20312;-90
2022/12/08 05:14:22;;;;;;;;;;;;;;;;;;2088011;28;19920;-90
2022/12/08 05:15:22;;;;;;;;;;;;;;;;;;2087468;28;19921;-90
2022/12/08 05:16:23;;;;;;;;;;;;;;;;;;2088094;28;20011;-90
2022/12/08 05:17:23;;;;;;;;;;;;;;;;;;2088747;28;19920;-90
2022/12/08 05:18:24;;;;;;;;;;;;;;;;;;2079582;28;19917;-89
2022/12/08 05:19:25;;;;;;;;;;;;;;;;;;2080007;28;19917;-89
2022/12/08 05:20:25;;;;;;;;;;;;;;;;;;2079691;28;20412;-89
2022/12/08 05:21:25;;;;;;;;;;;;;;;;;;2079814;28;19920;-91
2022/12/08 05:22:27;;;;;;;;;;;;;;;;;;2087865;28;19932;-90
2022/12/08 05:23:27;;;;;;;;;;;;;;;;;;2080001;28;20316;-90
2022/12/08 05:24:28;;;;;;;;;;;;;;;;;;2086782;28;19923;-91
2022/12/08 05:25:28;;;;;;;;;;;;;;;;;;2093085;28;20346;-90
2022/12/08 05:26:29;;;;;;;;;;;;;;;;;;2091191;28;19916;-90
2022/12/08 05:27:29;;;;;;;;;;;;;;;;;;2088039;28;19924;-91
2022/12/08 05:28:29;;;;;;;;;;;;;;;;;;2087981;28;19917;-89
2022/12/08 05:29:29;;;;;;;;;;;;;;;;;;2071778;28;20016;-90
2022/12/08 05:30:30;;;;;;;;;;;;;;;;;;2071677;28;19949;-91
2022/12/08 05:31:30;;;;;;;;;;;;;;;;;;2071539;28;20385;-91
2022/12/08 05:32:30;;;;;;;;;;;;;;;;;;2071430;28;19929;-91
2022/12/08 05:33:31;;;;;;;;;;;;;;;;;;2079769;28;20011;-91
2022/12/08 05:34:31;;;;;;;;;;;;;;;;;;2088183;28;19920;-91
2022/12/08 05:35:31;;;;;;;;;;;;;;;;;;2072079;28;20242;-91
2022/12/08 05:36:31;;;;;;;;;;;;;;;;;;2080147;28;19913;-92
2022/12/08 05:37:32;;;;;;;;;;;;;;;;;;2079279;28;19976;-91
2022/12/08 05:38:32;;;;;;;;;;;;;;;;;;2071749;28;19914;-91
2022/12/08 05:39:32;;;;;;;;;;;;;;;;;;2071788;28;20009;-92
2022/12/08 05:40:33;;;;;;;;;;;;;;;;;;2080051;28;19959;-91
2022/12/08 05:41:33;;;;;;;;;;;;;;;;;;2087905;28;19913;-91
2022/12/08 05:42:33;;;;;;;;;;;;;;;;;;2088021;28;19912;-90
2022/12/08 05:43:34;;;;;;;;;;;;;;;;;;2071573;28;19914;-91
2022/12/08 05:44:34;;;;;;;;;;;;;;;;;;2079667;28;19979;-91
2022/12/08 05:45:34;;;;;;;;;;;;;;;;;;2079558;28;20386;-91
2022/12/08 05:46:35;;;;;;;;;;;;;;;;;;2079945;28;19952;-90
2022/12/08 05:47:35;;;;;;;;;;;;;;;;;;2079912;28;20340;-92
2022/12/08 05:48:36;;;;;;;;;;;;;;;;;;2071624;28;19914;-91
2022/12/08 05:49:36;;;;;;;;;;;;;;;;;;2071693;28;20372;-91
2022/12/08 05:50:36;;;;;;;;;;;;;;;;;;2071485;28;20003;-91
2022/12/08 05:51:37;;;;;;;;;;;;;;;;;;2079952;28;19913;-91
2022/12/08 05:52:37;;;;;;;;;;;;;;;;;;2087978;28;19952;-91
2022/12/08 05:53:37;;;;;;;;;;;;;;;;;;2088000;28;19983;-90
2022/12/08 05:54:37;;;;;;;;;;;;;;;;;;2088043;28;20303;-90
2022/12/08 05:55:38;;;;;;;;;;;;;;;;;;2087849;28;19939;-91
2022/12/08 05:56:38;;;;;;;;;;;;;;;;;;2087856;28;20407;-89
2022/12/08 05:57:38;;;;;;;;;;;;;;;;;;2088191;28;19936;-90
2022/12/08 05:58:39;;;;;;;;;;;;;;;;;;2088631;28;20383;-91
2022/12/08 05:59:39;;;;;;;;;;;;;;;;;;2083727;28;19960;-90
2022/12/08 06:00:40;;;;;;;;;;;;;;;;;;2072198;28;19922;-92
2022/12/08 06:01:41;;;;;;;;;;;;;;;;;;2071728;28;19960;-92
2022/12/08 06:02:41;;;;;;;;;;;;;;;;;;2071552;28;20448;-91
2022/12/08 06:03:42;;;;;;;;;;;;;;;;;;2072562;28;19913;-92
2022/12/08 06:04:42;;;;;;;;;;;;;;;;;;2079772;28;20055;-91
2022/12/08 06:05:44;;;;;;;;;;;;;;;;;;2071502;28;19962;-91
2022/12/08 06:06:44;;;;;;;;;;;;;;;;;;2071552;28;19913;-91
2022/12/08 06:07:44;;;;;;;;;;;;;;;;;;2079501;28;20434;-91
2022/12/08 06:08:44;;;;;;;;;;;;;;;;;;2079425;28;20011;-91
2022/12/08 06:09:45;;;;;;;;;;;;;;;;;;2079569;28;19913;-91
2022/12/08 06:10:45;;;;;;;;;;;;;;;;;;2079659;28;20367;-90
2022/12/08 06:11:46;;;;;;;;;;;;;;;;;;2079588;28;19971;-91
2022/12/08 06:12:46;;;;;;;;;;;;;;;;;;2079640;28;19957;-91
2022/12/08 06:13:47;;;;;;;;;;;;;;;;;;2079486;28;20382;-91
2022/12/08 06:14:47;;;;;;;;;;;;;;;;;;2089106;28;20379;-90
2022/12/08 06:15:47;;;;;;;;;;;;;;;;;;2081149;28;20037;-91
2022/12/08 06:16:48;;;;;;;;;;;;;;;;;;2072919;28;19952;-91
2022/12/08 06:17:48;;;;;;;;;;;;;;;;;;2081103;28;19967;-90
2022/12/08 06:18:51;;;;;;;;;;;;;;;;;;2089601;28;20397;-90
2022/12/08 06:19:51;;;;;;;;;;;;;;;;;;2089430;28;19913;-90
2022/12/08 06:20:51;;;;;;;;;;;;;;;;;;2081257;28;19913;-90
2022/12/08 06:21:52;;;;;;;;;;;;;;;;;;2072719;28;19913;-90
2022/12/08 06:22:55;;;;;;;;;;;;;;;;;;2084622;28;19921;-91
2022/12/08 06:23:55;;;;;;;;;;;;;;;;;;2081453;28;19953;-91
2022/12/08 06:24:55;;;;;;;;;;;;;;;;;;2072898;28;20004;-91
2022/12/08 06:25:59;;;;;;;;;;;;;;;;;;2081069;28;19985;-90
2022/12/08 06:26:59;;;;;;;;;;;;;;;;;;2081043;28;19988;-92
2022/12/08 06:28:00;;;;;;;;;;;;;;;;;;2072784;28;19925;-91
2022/12/08 06:29:00;;;;;;;;;;;;;;;;;;2080992;28;19917;-90
2022/12/08 06:30:00;;;;;;;;;;;;;;;;;;2081062;28;19972;-92
2022/12/08 06:31:06;;;;;;;;;;;;;;;;;;2080896;28;20304;-91
2022/12/08 06:32:06;;;;;;;;;;;;;;;;;;2081018;28;19992;-91
2022/12/08 06:33:06;;;;;;;;;;;;;;;;;;2080751;28;19920;-91
2022/12/08 06:34:07;;;;;;;;;;;;;;;;;;2089145;28;19970;-91
2022/12/08 06:35:07;;;;;;;;;;;;;;;;;;2089812;28;19948;-90
2022/12/08 06:36:09;;;;;;;;;;;;;;;;;;2089161;28;19920;-92
2022/12/08 06:37:10;;;;;;;;;;;;;;;;;;2089094;28;19952;-91
2022/12/08 06:38:10;;;;;;;;;;;;;;;;;;2088389;28;19913;-91
2022/12/08 06:39:10;;;;;;;;;;;;;;;;;;2073161;28;20012;-91
2022/12/08 06:40:11;;;;;;;;;;;;;;;;;;2073617;28;19964;-92
2022/12/08 06:41:11;;;;;;;;;;;;;;;;;;2071132;28;19914;-91
2022/12/08 06:43:32;;;;;;;;;;;;;;;;;;2090733;28;19912;-92
2022/12/08 06:44:32;;;;;;;;;;;;;;;;;;2089781;28;19913;-92
2022/12/08 06:45:32;;;;;;;;;;;;;;;;;;2089794;28;20366;-91
2022/12/08 06:46:32;;;;;;;;;;;;;;;;;;2089876;28;19975;-90
2022/12/08 06:47:33;;;;;;;;;;;;;;;;;;2073550;28;19914;-92
2022/12/08 06:48:33;;;;;;;;;;;;;;;;;;2081521;28;19913;-91
2022/12/08 06:49:33;;;;;;;;;;;;;;;;;;2089779;28;20008;-91
2022/12/08 06:50:34;;;;;;;;;;;;;;;;;;2089608;28;19919;-92
2022/12/08 06:51:34;;;;;;;;;;;;;;;;;;2089765;28;19916;-92
2022/12/08 06:52:34;;;;;;;;;;;;;;;;;;2089798;28;20011;-92
2022/12/08 06:53:35;;;;;;;;;;;;;;;;;;2089751;28;20017;-92
2022/12/08 06:54:35;;;;;;;;;;;;;;;;;;2081630;28;19913;-91
2022/12/08 06:55:35;;;;;;;;;;;;;;;;;;2073102;28;19924;-92
2022/12/08 06:56:36;;;;;;;;;;;;;;;;;;2073093;28;20386;-91
2022/12/08 06:57:39;;;;;;;;;;;;;;;;;;2071780;28;20000;-92
2022/12/08 06:58:39;;;;;;;;;;;;;;;;;;2081699;28;19932;-92
2022/12/08 06:59:40;;;;;;;;;;;;;;;;;;2090300;28;19999;-91
2022/12/08 07:00:40;;;;;;;;;;;;;;;;;;2089607;28;20597;-90
2022/12/08 07:01:40;;;;;;;;;;;;;;;;;;2089787;28;19958;-91
2022/12/08 07:02:41;;;;;;;;;;;;;;;;;;2089852;28;19914;-90
2022/12/08 07:03:42;;;;;;;;;;;;;;;;;;2072841;28;19961;-92
2022/12/08 07:04:42;;;;;;;;;;;;;;;;;;2081414;28;20426;-91
2022/12/08 07:05:43;;;;;;;;;;;;;;;;;;2090379;28;19919;-90
2022/12/08 07:06:43;;;;;;;;;;;;;;;;;;2081334;28;20449;-90
2022/12/08 07:07:43;;;;;;;;;;;;;;;;;;2080319;28;19921;-90
2022/12/08 07:08:44;;;;;;;;;;;;;;;;;;2080355;28;19917;-90
2022/12/08 07:09:44;;;;;;;;;;;;;;;;;;2088299;28;19909;-91
2022/12/08 07:10:44;;;;;;;;;;;;;;;;;;2086376;28;19918;-90